Time;durP1;ratioP1;P1;durP2;ratioP2;P2;SDS_P1;SDS_P2;PMS_P1;PMS_P2;Temp;Humidity;BMP_temperature;BMP_pressure;BME280_temperature;BME280_humidity;BME280_pressure;Samples;Min_cycle;Max_cycle;Signal;HPM_P1;HPM_P2
2021/03/29 00:01:57;;;;;;;5.82;4.07;;;;;;;7.23;81.94;97696.38;5006291;28;20069;-49
2021/03/29 00:04:24;;;;;;;8.02;4.65;;;;;;;7.34;80.04;97694.78;5019580;28;20065;-51
2021/03/29 00:06:52;;;;;;;9.77;4.97;;;;;;;7.17;82.24;97694.97;4999928;28;20076;-49
2021/03/29 00:09:20;;;;;;;5.22;4.68;;;;;;;7.16;83.05;97692.41;5023224;28;20480;-51
2021/03/29 00:11:49;;;;;;;9.25;4.57;;;;;;;7.14;83.06;97689.91;4996549;28;20508;-46
2021/03/29 00:14:17;;;;;;;7.50;4.60;;;;;;;7.25;81.99;97684.00;5030858;28;20081;-50
2021/03/29 00:16:45;;;;;;;7.72;4.60;;;;;;;7.22;81.71;97685.03;5022883;28;20072;-51
2021/03/29 00:19:13;;;;;;;8.07;5.00;;;;;;;7.28;82.76;97682.03;5006125;28;20069;-48
2021/03/29 00:21:40;;;;;;;7.53;4.70;;;;;;;7.25;81.89;97681.38;5023658;28;20069;-46
2021/03/29 00:24:09;;;;;;;10.65;4.72;;;;;;;7.14;84.34;97684.66;5009205;28;20413;-46
2021/03/29 00:26:37;;;;;;;6.85;4.45;;;;;;;7.25;82.80;97681.38;5025230;28;20088;-50
2021/03/29 00:29:06;;;;;;;6.35;5.03;;;;;;;7.24;82.44;97677.06;5005768;28;20082;-54
2021/03/29 00:31:33;;;;;;;4.90;4.30;;;;;;;7.30;82.74;97687.22;5025445;28;20099;-52
2021/03/29 00:34:02;;;;;;;8.98;4.63;;;;;;;7.10;85.68;97689.25;4994569;28;20072;-48
2021/03/29 00:36:29;;;;;;;6.82;4.95;;;;;;;7.23;84.50;97691.16;5024759;28;20452;-48
2021/03/29 00:38:57;;;;;;;7.60;4.80;;;;;;;7.08;86.43;97698.13;4997732;28;20060;-49
2021/03/29 00:41:25;;;;;;;7.43;4.78;;;;;;;6.93;89.43;97702.53;5037569;28;20087;-52
2021/03/29 00:43:53;;;;;;;6.70;5.45;;;;;;;7.12;87.69;97707.50;4998019;28;20076;-49
2021/03/29 00:46:23;;;;;;;6.43;4.47;;;;;;;7.19;87.79;97707.97;5037231;28;20047;-49
2021/03/29 00:48:52;;;;;;;7.40;4.90;;;;;;;6.86;92.76;97707.28;4997487;28;20061;-50
2021/03/29 00:51:22;;;;;;;6.32;4.65;;;;;;;7.02;89.25;97706.38;5032580;28;20076;-54
2021/03/29 00:53:51;;;;;;;7.70;4.90;;;;;;;7.11;86.61;97700.59;5001465;28;20080;-50
2021/03/29 00:56:20;;;;;;;9.20;5.28;;;;;;;6.93;89.47;97709.56;5027671;28;20095;-51
2021/03/29 00:58:48;;;;;;;10.00;4.88;;;;;;;6.92;89.22;97706.09;4995470;28;20068;-50
2021/03/29 01:01:17;;;;;;;8.25;4.78;;;;;;;6.98;88.14;97707.50;5026168;28;20084;-54
2021/03/29 01:03:48;;;;;;;6.82;4.50;;;;;;;6.77;89.62;97709.63;5005250;28;20057;-52
2021/03/29 01:06:18;;;;;;;7.30;4.97;;;;;;;6.46;92.48;97710.56;5027897;28;20084;-52
2021/03/29 01:08:48;;;;;;;7.82;5.20;;;;;;;6.62;91.56;97703.50;5015300;28;20080;-54
2021/03/29 01:11:17;;;;;;;8.23;5.18;;;;;;;6.61;92.12;97704.44;5000960;28;20089;-51
2021/03/29 01:13:48;;;;;;;7.72;4.90;;;;;;;6.47;93.49;97707.88;5029356;28;20077;-49
2021/03/29 01:16:16;;;;;;;;;;;;;;;6.29;95.30;97711.50;5002442;28;20080;-50
2021/03/29 01:18:47;;;;;;;8.00;5.38;;;;;;;6.21;95.92;97708.50;5023965;28;20300;-52
2021/03/29 01:21:29;;;;;;;6.80;4.78;;;;;;;6.09;97.65;97712.63;5007246;28;20065;-52
2021/03/29 01:24:03;;;;;;;7.07;5.45;;;;;;;5.86;99.97;97703.44;5017771;28;20073;-45
2021/03/29 01:26:34;;;;;;;7.35;5.05;;;;;;;5.97;100.00;97708.94;5006650;28;20558;-51
2021/03/29 01:29:02;;;;;;;7.78;5.38;;;;;;;5.72;100.00;97717.28;5022061;28;20473;-49
2021/03/29 01:31:30;;;;;;;8.20;5.28;;;;;;;5.83;100.00;97714.91;4989920;28;20077;-48
2021/03/29 01:33:57;;;;;;;7.90;5.57;;;;;;;5.69;100.00;97717.44;5018507;28;20504;-50
2021/03/29 01:36:26;;;;;;;8.32;5.82;;;;;;;5.58;100.00;97718.03;4989109;28;20065;-51
2021/03/29 01:38:54;;;;;;;6.15;5.40;;;;;;;5.39;100.00;97725.16;5023840;28;20076;-47
2021/03/29 01:41:22;;;;;;;7.40;5.57;;;;;;;5.23;100.00;97725.13;4993211;28;20436;-49
2021/03/29 01:43:51;;;;;;;7.90;5.50;;;;;;;5.12;100.00;97725.66;5027618;28;20057;-46
2021/03/29 01:46:19;;;;;;;7.45;5.15;;;;;;;5.18;100.00;97730.59;4980224;28;20083;-49
2021/03/29 01:48:47;;;;;;;7.28;5.25;;;;;;;5.12;100.00;97733.50;5025392;28;20081;-46
2021/03/29 01:51:16;;;;;;;6.72;5.57;;;;;;;5.09;100.00;97731.06;4990241;28;20073;-48
2021/03/29 01:53:45;;;;;;;6.38;5.43;;;;;;;5.08;100.00;97731.97;5020544;28;20081;-50
2021/03/29 01:56:13;;;;;;;7.78;5.20;;;;;;;5.10;100.00;97732.75;4980770;28;20072;-49
2021/03/29 01:58:41;;;;;;;5.78;5.15;;;;;;;5.14;100.00;97728.22;5006455;28;20079;-47
2021/03/29 02:01:11;;;;;;;8.75;5.88;;;;;;;5.09;100.00;97727.59;4993892;28;20088;-50
2021/03/29 02:03:40;;;;;;;9.52;5.78;;;;;;;5.07;100.00;97721.63;5004508;28;20079;-47
2021/03/29 02:06:09;;;;;;;6.82;5.00;;;;;;;5.10;100.00;97726.69;5000843;28;20064;-44
2021/03/29 02:08:39;;;;;;;8.93;5.25;;;;;;;5.02;100.00;97721.84;5008745;28;20099;-45
2021/03/29 02:11:06;;;;;;;9.75;5.22;;;;;;;5.08;100.00;97725.91;5019360;28;20521;-46
2021/03/29 02:13:35;;;;;;;7.22;5.78;;;;;;;5.14;100.00;97718.59;4995371;28;20084;-47
2021/03/29 02:16:05;;;;;;;7.60;5.60;;;;;;;5.14;100.00;97723.84;5025069;28;20092;-46
2021/03/29 02:18:37;;;;;;;9.95;5.45;;;;;;;5.21;100.00;97717.34;4997358;28;20061;-50
2021/03/29 02:21:13;;;;;;;7.82;5.45;;;;;;;5.30;100.00;97720.41;5024009;28;20061;-51
2021/03/29 02:23:41;;;;;;;9.35;5.55;;;;;;;5.31;100.00;97717.72;5003873;28;20088;-52
2021/03/29 02:26:10;;;;;;;8.38;5.50;;;;;;;5.17;100.00;97725.44;5025284;28;20103;-54
2021/03/29 02:28:39;;;;;;;7.57;5.47;;;;;;;5.09;100.00;97722.38;4990049;28;20091;-54
2021/03/29 02:31:07;;;;;;;6.53;5.23;;;;;;;5.11;100.00;97731.00;5023988;28;20072;-48
2021/03/29 02:33:36;;;;;;;6.35;5.18;;;;;;;5.26;100.00;97721.50;4991944;28;20069;-48
2021/03/29 02:36:05;;;;;;;7.32;6.03;;;;;;;5.31;100.00;97728.19;5020649;28;20076;-48
2021/03/29 02:38:33;;;;;;;7.05;4.90;;;;;;;5.23;100.00;97722.53;5000591;28;20491;-51
2021/03/29 02:41:00;;;;;;;5.95;5.22;;;;;;;5.38;100.00;97720.84;5020248;28;20532;-49
2021/03/29 02:43:28;;;;;;;9.63;5.88;;;;;;;5.43;100.00;97724.91;4998536;28;20066;-47
2021/03/29 02:45:57;;;;;;;7.18;5.65;;;;;;;5.42;100.00;97722.38;5042713;28;20064;-52
2021/03/29 02:48:27;;;;;;;7.63;5.90;;;;;;;5.31;100.00;97725.56;4991739;28;20057;-47
2021/03/29 02:50:58;;;;;;;6.40;5.53;;;;;;;5.41;100.00;97718.09;5019611;28;20065;-49
2021/03/29 02:53:29;;;;;;;8.13;5.63;;;;;;;5.43;100.00;97731.91;4994525;28;20073;-49
2021/03/29 02:55:58;;;;;;;12.10;5.88;;;;;;;5.25;100.00;97731.13;5030613;28;20448;-48
2021/03/29 02:58:28;;;;;;;7.55;5.93;;;;;;;5.45;100.00;97736.13;4996589;28;23379;-47
2021/03/29 03:00:56;;;;;;;7.70;5.63;;;;;;;5.33;100.00;97739.38;5023390;28;20069;-48
2021/03/29 03:03:24;;;;;;;7.30;5.13;;;;;;;5.27;100.00;97733.66;4997176;28;20060;-45
2021/03/29 03:05:53;;;;;;;12.27;5.78;;;;;;;5.06;100.00;97740.81;5022486;28;20073;-49
2021/03/29 03:08:22;;;;;;;8.02;6.25;;;;;;;5.35;100.00;97736.72;5026087;28;20087;-49
2021/03/29 03:10:49;;;;;;;9.95;6.00;;;;;;;5.24;100.00;97738.13;4997068;28;20072;-47
2021/03/29 03:13:17;;;;;;;8.82;5.72;;;;;;;5.25;100.00;97744.19;5040601;28;20063;-44
2021/03/29 03:15:46;;;;;;;8.32;5.38;;;;;;;5.20;100.00;97738.38;5008565;28;20069;-49
2021/03/29 03:18:14;;;;;;;6.85;5.55;;;;;;;5.00;100.00;97739.38;5032417;28;20069;-48
2021/03/29 03:20:42;;;;;;;7.10;5.10;;;;;;;4.91;100.00;97740.69;5007992;28;20084;-47
2021/03/29 03:23:14;;;;;;;7.00;5.22;;;;;;;4.99;100.00;97745.56;5032907;28;20116;-47
2021/03/29 03:25:43;;;;;;;8.65;5.45;;;;;;;5.01;100.00;97735.84;5004276;28;20072;-48
2021/03/29 03:28:14;;;;;;;9.38;5.55;;;;;;;5.12;100.00;97746.59;5026512;28;20064;-49
2021/03/29 03:30:43;;;;;;;6.82;5.00;;;;;;;5.12;100.00;97748.34;4991242;28;20069;-54
2021/03/29 03:33:13;;;;;;;7.72;6.05;;;;;;;5.06;100.00;97748.66;5029170;28;20072;-46
2021/03/29 03:35:41;;;;;;;8.90;5.28;;;;;;;5.12;100.00;97748.34;5001932;28;20084;-45
2021/03/29 03:38:12;;;;;;;8.13;4.90;;;;;;;5.21;100.00;97747.88;5025218;28;20475;-50
2021/03/29 03:40:41;;;;;;;9.18;4.90;;;;;;;5.27;100.00;97754.59;5007189;28;20068;-49
2021/03/29 03:43:11;;;;;;;8.90;5.50;;;;;;;5.26;100.00;97747.63;5038602;28;20638;-46
2021/03/29 03:45:40;;;;;;;;;;;;;;;5.17;100.00;97755.06;4999037;28;20702;-49
2021/03/29 03:48:08;;;;;;;7.03;5.60;;;;;;;4.85;100.00;97750.59;5041898;28;19960;-50
2021/03/29 03:50:36;;;;;;;9.27;5.35;;;;;;;4.83;100.00;97745.47;4994682;28;20100;-49
2021/03/29 03:53:04;;;;;;;10.77;5.88;;;;;;;4.89;100.00;97746.94;5037480;28;20108;-52
2021/03/29 03:55:31;;;;;;;6.13;5.28;;;;;;;5.02;100.00;97749.75;5001064;28;20494;-49
2021/03/29 03:57:59;;;;;;;9.57;5.10;;;;;;;4.98;100.00;97749.06;5031022;28;20064;-51
2021/03/29 04:00:29;;;;;;;10.10;5.72;;;;;;;4.92;100.00;97745.03;5029155;28;20067;-49
2021/03/29 04:02:56;;;;;;;7.63;5.10;;;;;;;4.91;100.00;97751.16;4997246;28;20073;-47
2021/03/29 04:05:24;;;;;;;9.07;5.10;;;;;;;5.00;100.00;97757.69;5041460;28;20076;-54
2021/03/29 04:08:12;;;;;;;8.23;5.35;;;;;;;5.05;100.00;97750.44;5005116;28;21136;-49
2021/03/29 04:10:43;;;;;;;7.32;4.97;;;;;;;4.94;100.00;97755.38;5029350;28;20069;-53
2021/03/29 04:13:12;;;;;;;5.97;5.10;;;;;;;4.99;100.00;97750.78;4999996;28;20589;-54
2021/03/29 04:15:41;;;;;;;7.40;4.95;;;;;;;5.10;100.00;97758.91;5035721;28;20456;-49
2021/03/29 04:18:10;;;;;;;9.10;5.47;;;;;;;5.08;100.00;97763.34;5002293;28;20520;-50
2021/03/29 04:20:37;;;;;;;8.00;4.93;;;;;;;5.07;100.00;97759.06;5030203;28;20077;-51
2021/03/29 04:23:05;;;;;;;8.85;5.72;;;;;;;5.24;100.00;97759.03;5011306;28;20080;-53
2021/03/29 04:25:33;;;;;;;10.73;5.22;;;;;;;5.16;100.00;97756.00;5024971;28;20065;-52
2021/03/29 04:28:01;;;;;;;6.22;4.93;;;;;;;5.26;100.00;97755.50;5012091;28;20064;-53
2021/03/29 04:30:28;;;;;;;6.65;4.60;;;;;;;5.09;100.00;97761.59;5020940;28;20528;-51
2021/03/29 04:32:56;;;;;;;7.53;4.60;;;;;;;4.85;100.00;97767.16;5003466;28;20069;-53
2021/03/29 04:35:24;;;;;;;9.85;5.30;;;;;;;4.94;100.00;97765.84;5030511;28;20073;-50
2021/03/29 04:37:53;;;;;;;6.35;4.85;;;;;;;4.96;100.00;97777.06;5002876;28;20088;-54
2021/03/29 04:40:22;;;;;;;11.15;5.05;;;;;;;4.83;100.00;97774.22;5034718;28;20057;-52
2021/03/29 04:42:50;;;;;;;6.80;4.80;;;;;;;4.71;100.00;97780.03;5000848;28;20061;-54
2021/03/29 04:45:18;;;;;;;9.52;4.85;;;;;;;4.86;100.00;97779.28;5039343;28;20529;-52
2021/03/29 04:47:45;;;;;;;6.85;4.80;;;;;;;4.86;100.00;97778.47;4999273;28;20088;-55
2021/03/29 04:50:20;;;;;;;5.60;4.82;;;;;;;4.80;100.00;97779.59;5031974;28;20081;-53
2021/03/29 04:52:48;;;;;;;8.80;4.93;;;;;;;4.87;100.00;97775.75;4994631;28;20200;-54
2021/03/29 04:55:17;;;;;;;6.00;5.40;;;;;;;4.86;100.00;97779.28;5038010;28;20184;-49
2021/03/29 04:57:44;;;;;;;5.82;4.82;;;;;;;4.87;100.00;97780.97;5025866;28;20064;-48
2021/03/29 05:00:14;;;;;;;9.30;4.72;;;;;;;4.66;100.00;97788.13;5008711;28;20076;-51
2021/03/29 05:02:42;;;;;;;10.25;4.93;;;;;;;4.76;100.00;97791.13;5037484;28;20264;-51
2021/03/29 05:05:10;;;;;;;7.93;5.15;;;;;;;4.83;100.00;97797.75;4993613;28;20080;-54
2021/03/29 05:07:38;;;;;;;6.95;4.63;;;;;;;4.92;100.00;97792.06;5040560;28;20068;-54
2021/03/29 05:10:09;;;;;;;8.63;5.65;;;;;;;4.72;100.00;97797.44;4990000;28;20077;-53
2021/03/29 05:12:36;;;;;;;9.27;4.97;;;;;;;4.88;100.00;97800.97;5029773;28;20089;-53
2021/03/29 05:15:05;;;;;;;8.60;4.93;;;;;;;4.91;100.00;97800.81;5001113;28;20088;-53
2021/03/29 05:17:33;;;;;;;6.70;5.15;;;;;;;4.72;100.00;97802.66;5037002;28;20477;-55
2021/03/29 05:20:00;;;;;;;12.68;5.32;;;;;;;4.98;100.00;97807.41;5009823;28;20076;-53
2021/03/29 05:22:28;;;;;;;11.40;5.65;;;;;;;4.62;100.00;97804.88;5019294;28;20061;-51
2021/03/29 05:24:56;;;;;;;12.80;5.65;;;;;;;5.05;100.00;97810.56;5000758;28;21329;-52
2021/03/29 05:27:24;;;;;;;15.80;5.78;;;;;;;5.26;100.00;97820.88;5028689;28;20326;-52
2021/03/29 05:29:52;;;;;;;12.82;4.78;;;;;;;5.25;100.00;97820.03;4998911;28;20080;-54
2021/03/29 05:32:22;;;;;;;8.32;5.20;;;;;;;5.21;100.00;97818.50;5032693;28;20103;-49
2021/03/29 05:34:51;;;;;;;8.75;5.45;;;;;;;5.36;100.00;97822.94;5000676;28;20068;-47
2021/03/29 05:37:19;;;;;;;6.95;4.88;;;;;;;5.27;100.00;97826.03;5036585;28;20073;-54
2021/03/29 05:39:48;;;;;;;12.23;5.55;;;;;;;5.56;100.00;97821.91;4997555;28;22600;-54
2021/03/29 05:42:18;;;;;;;7.45;4.82;;;;;;;5.76;99.98;97820.88;5037113;28;20073;-53
2021/03/29 05:44:46;;;;;;;9.88;5.00;;;;;;;5.46;100.00;97824.16;4987794;28;20523;-53
2021/03/29 05:47:14;;;;;;;7.60;4.75;;;;;;;5.76;100.00;97822.66;5041980;28;20078;-48
2021/03/29 05:49:42;;;;;;;15.07;5.72;;;;;;;5.37;100.00;97826.44;5026827;28;20510;-54
2021/03/29 05:52:10;;;;;;;11.82;5.32;;;;;;;5.86;100.00;97819.47;5000053;28;20472;-53
2021/03/29 05:54:38;;;;;;;9.40;5.13;;;;;;;6.08;98.23;97829.63;5029382;28;20069;-50
2021/03/29 05:57:06;;;;;;;10.45;5.60;;;;;;;6.37;96.94;97825.44;4986357;28;20068;-51
2021/03/29 05:59:40;;;;;;;9.85;4.88;;;;;;;6.34;97.13;97825.63;5029463;28;20072;-53
2021/03/29 06:02:08;;;;;;;9.63;5.22;;;;;;;6.41;96.46;97828.75;4994389;28;20085;-53
2021/03/29 06:04:43;;;;;;;9.27;5.18;;;;;;;6.80;92.68;97828.25;5036787;28;20069;-48
2021/03/29 06:07:13;;;;;;;9.30;5.22;;;;;;;6.83;97.07;97835.13;4995579;28;20481;-44
2021/03/29 06:09:41;;;;;;;9.20;5.32;;;;;;;7.05;93.92;97834.72;5022970;28;20096;-52
2021/03/29 06:12:09;;;;;;;7.25;5.05;;;;;;;7.24;90.15;97831.88;5005804;28;20483;-54
2021/03/29 06:14:38;;;;;;;10.30;5.05;;;;;;;7.39;87.82;97838.84;5029348;28;20462;-50
2021/03/29 06:17:07;;;;;;;16.42;5.28;;;;;;;7.43;87.62;97845.59;4991942;28;20065;-48
2021/03/29 06:19:54;;;;;;;14.43;5.10;;;;;;;7.53;87.33;97838.84;5025435;28;20057;-49
2021/03/29 06:22:24;;;;;;;8.15;4.78;;;;;;;7.85;85.71;97842.19;4985484;28;20468;-48
2021/03/29 06:25:10;;;;;;;11.57;4.95;;;;;;;8.00;86.13;97847.41;5021235;28;20449;-50
2021/03/29 06:27:42;;;;;;;14.85;4.95;;;;;;;8.23;83.39;97846.84;4980725;28;20066;-46
2021/03/29 06:30:13;;;;;;;9.73;4.85;;;;;;;7.83;85.03;97845.81;5026087;28;20061;-48
2021/03/29 06:32:52;;;;;;;;;;;;;;;8.18;83.79;97848.91;5000931;28;20089;-49
2021/03/29 06:35:21;;;;;;;14.60;5.63;;;;;;;8.56;82.96;97849.16;5045255;28;19963;-46
2021/03/29 06:37:49;;;;;;;9.75;4.65;;;;;;;8.75;80.75;97848.81;4995391;28;20065;-51
2021/03/29 06:40:16;;;;;;;8.23;4.15;;;;;;;8.86;78.60;97842.03;5043698;28;20081;-51
2021/03/29 06:42:44;;;;;;;5.45;4.18;;;;;;;8.58;81.43;97851.69;4993451;28;20081;-50
2021/03/29 06:45:15;;;;;;;6.53;4.30;;;;;;;8.68;80.96;97850.16;5034709;28;20076;-47
2021/03/29 06:47:42;;;;;;;;;;;;;;;8.47;83.13;97852.38;4996046;28;20085;-48
2021/03/29 06:50:14;;;;;;;5.82;4.45;;;;;;;9.17;78.39;97844.31;5032041;28;19960;-49
2021/03/29 06:52:41;;;;;;;6.55;4.40;;;;;;;9.21;79.45;97852.84;4994446;28;20095;-50
2021/03/29 06:55:20;;;;;;;7.90;4.70;;;;;;;9.00;84.54;97849.84;5019437;28;20069;-53
2021/03/29 06:58:00;;;;;;;7.70;4.63;;;;;;;8.94;81.63;97852.88;5008023;28;20069;-49
2021/03/29 07:00:32;;;;;;;10.45;4.82;;;;;;;9.15;80.13;97859.38;5022931;28;20065;-50
2021/03/29 07:03:01;;;;;;;6.95;4.60;;;;;;;9.57;77.82;97854.81;5003840;28;20073;-52
2021/03/29 07:05:30;;;;;;;6.65;4.22;;;;;;;9.64;77.46;97850.00;5034647;28;20490;-50
2021/03/29 07:07:58;;;;;;;7.10;4.90;;;;;;;9.78;76.18;97859.59;5003059;28;20425;-49
2021/03/29 07:10:26;;;;;;;6.70;4.70;;;;;;;10.04;73.29;97852.50;5033621;28;20443;-49
2021/03/29 07:13:12;;;;;;;8.65;4.40;;;;;;;10.33;72.80;97855.75;4996409;28;20096;-48
2021/03/29 07:15:41;;;;;;;7.28;4.38;;;;;;;10.18;73.96;97852.38;5033323;28;20088;-47
2021/03/29 07:18:09;;;;;;;5.72;4.50;;;;;;;10.25;70.98;97855.41;5027125;28;20061;-51
2021/03/29 07:20:36;;;;;;;6.03;4.28;;;;;;;10.40;73.32;97857.00;5013541;28;20084;-47
2021/03/29 07:23:22;;;;;;;9.02;4.53;;;;;;;10.82;69.40;97860.16;5031237;28;20068;-47
2021/03/29 07:25:50;;;;;;;7.20;4.03;;;;;;;10.71;66.42;97858.28;5013331;28;20077;-47
2021/03/29 07:28:20;;;;;;;9.30;4.60;;;;;;;10.72;60.46;97856.50;5037861;28;20472;-47
2021/03/29 07:30:49;;;;;;;;;;;;;;;10.50;59.25;97858.03;4989997;28;20066;-51
2021/03/29 07:33:18;;;;;;;7.35;4.15;;;;;;;10.94;57.81;97843.41;5040994;28;20369;-47
2021/03/29 07:35:49;;;;;;;11.65;4.60;;;;;;;11.21;57.79;97850.25;4999019;28;20076;-47
2021/03/29 07:38:54;;;;;;;12.88;4.32;;;;;;;11.37;57.44;97858.72;5030516;28;20061;-51
2021/03/29 07:41:22;;;;;;;11.90;4.32;;;;;;;11.50;56.85;97850.72;5015646;28;20084;-49
2021/03/29 07:44:11;;;;;;;8.25;4.40;;;;;;;11.52;57.13;97856.69;5025306;28;20541;-47
2021/03/29 07:46:41;;;;;;;8.93;3.78;;;;;;;11.62;57.42;97855.06;5034958;28;20064;-45
2021/03/29 07:49:45;;;;;;;7.78;4.03;;;;;;;11.86;53.90;97857.66;5025337;28;20069;-47
2021/03/29 07:52:26;;;;;;;6.60;3.83;;;;;;;11.79;54.37;97851.13;4986634;28;20080;-46
2021/03/29 07:54:54;;;;;;;8.85;3.67;;;;;;;11.84;55.22;97857.78;5004941;28;20075;-55
2021/03/29 07:58:00;;;;;;;5.80;3.58;;;;;;;12.27;53.58;97851.78;5024159;28;20069;-53
2021/03/29 08:00:48;;;;;;;7.55;3.22;;;;;;;12.40;53.58;97851.66;4995519;28;20077;-51
2021/03/29 08:03:39;;;;;;;4.65;3.35;;;;;;;12.87;53.56;97852.31;5029796;28;20068;-54
2021/03/29 08:06:07;;;;;;;5.15;3.30;;;;;;;12.40;50.95;97853.47;4997998;28;20548;-47
2021/03/29 08:08:39;;;;;;;5.72;3.75;;;;;;;12.62;50.22;97856.06;5031690;28;20081;-50
2021/03/29 08:11:12;;;;;;;8.35;3.55;;;;;;;12.56;51.23;97859.22;5000025;28;20567;-48
2021/03/29 08:13:41;;;;;;;4.70;3.65;;;;;;;13.29;52.27;97853.25;5038654;28;20103;-50
2021/03/29 08:16:11;;;;;;;7.22;3.78;;;;;;;13.32;52.75;97852.16;4996724;28;20073;-53
2021/03/29 08:19:11;;;;;;;5.72;3.42;;;;;;;12.98;48.76;97846.13;5032549;28;20204;-53
2021/03/29 08:21:49;;;;;;;5.97;3.80;;;;;;;13.40;47.51;97852.34;5006200;28;20091;-50
2021/03/29 08:24:21;;;;;;;5.38;3.50;;;;;;;13.42;48.40;97853.09;5025037;28;20452;-48
2021/03/29 08:26:49;;;;;;;5.60;3.42;;;;;;;13.46;47.20;97845.72;4998272;28;20080;-51
2021/03/29 08:29:28;;;;;;;5.30;3.58;;;;;;;13.58;46.15;97844.66;5030744;28;20081;-54
2021/03/29 08:32:15;;;;;;;6.85;3.60;;;;;;;13.59;46.18;97838.38;5003469;28;20056;-52
2021/03/29 08:34:51;;;;;;;6.88;3.25;;;;;;;13.67;44.85;97848.38;5036177;28;20538;-53
2021/03/29 08:37:22;;;;;;;6.22;3.50;;;;;;;13.84;46.02;97838.97;4995287;28;20077;-48
2021/03/29 08:39:51;;;;;;;5.53;3.55;;;;;;;13.71;44.82;97852.44;5039801;28;20064;-49
2021/03/29 08:42:22;;;;;;;6.22;3.67;;;;;;;14.12;45.82;97851.53;4996805;28;20066;-48
2021/03/29 08:44:51;;;;;;;6.63;3.28;;;;;;;14.10;46.02;97853.47;5026938;28;20081;-48
2021/03/29 08:47:20;;;;;;;6.38;3.60;;;;;;;14.17;45.70;97862.59;5001399;28;20107;-47
2021/03/29 08:49:52;;;;;;;6.57;3.35;;;;;;;14.52;46.37;97863.19;5014394;28;20057;-48
2021/03/29 08:52:20;;;;;;;5.25;3.33;;;;;;;14.43;43.91;97862.16;5009084;28;20072;-47
2021/03/29 08:54:53;;;;;;;3.95;3.17;;;;;;;14.71;43.96;97855.28;5025675;28;20461;-48
2021/03/29 08:57:23;;;;;;;5.50;3.00;;;;;;;14.53;42.26;97856.91;4999722;28;22918;-51
2021/03/29 08:59:52;;;;;;;5.30;3.13;;;;;;;14.94;43.30;97862.03;5021504;28;20096;-49
2021/03/29 09:02:20;;;;;;;7.72;3.22;;;;;;;14.93;43.90;97863.03;5012139;28;20088;-46
2021/03/29 09:04:56;;;;;;;8.30;3.60;;;;;;;15.29;42.61;97858.00;5025242;28;20083;-48
2021/03/29 09:07:32;;;;;;;6.07;3.17;;;;;;;15.35;42.89;97854.81;5020254;28;20058;-48
2021/03/29 09:10:00;;;;;;;7.55;3.65;;;;;;;15.00;41.24;97865.94;5019475;28;20475;-50
2021/03/29 09:12:31;;;;;;;6.22;3.42;;;;;;;15.40;41.32;97865.00;5026797;28;20042;-51
2021/03/29 09:14:58;;;;;;;5.97;3.50;;;;;;;15.54;40.03;97864.56;5018189;28;20064;-50
2021/03/29 09:17:28;;;;;;;7.68;3.25;;;;;;;15.75;40.42;97866.25;5024779;28;20084;-48
2021/03/29 09:19:58;;;;;;;4.65;2.97;;;;;;;15.49;38.93;97868.66;5005710;28;20512;-52
2021/03/29 09:22:34;;;;;;;7.82;3.38;;;;;;;15.64;38.52;97873.38;5027692;28;20069;-46
2021/03/29 09:25:04;;;;;;;5.45;2.80;;;;;;;15.87;40.07;97868.63;4992096;28;20071;-48
2021/03/29 09:27:37;;;;;;;4.95;2.85;;;;;;;15.79;39.56;97879.13;5034682;28;20072;-48
2021/03/29 09:30:08;;;;;;;5.32;3.03;;;;;;;16.24;39.66;97883.81;4992981;28;20073;-51
2021/03/29 09:32:39;;;;;;;4.15;2.70;;;;;;;16.00;39.16;97880.75;5038042;28;20077;-50
2021/03/29 09:35:08;;;;;;;7.72;3.58;;;;;;;15.91;38.13;97877.16;4996187;28;20077;-48
2021/03/29 09:37:46;;;;;;;5.95;3.25;;;;;;;15.73;37.30;97890.34;5039769;28;20072;-48
2021/03/29 09:40:14;;;;;;;7.43;3.38;;;;;;;16.60;38.98;97890.09;4998868;28;20534;-51
2021/03/29 09:42:43;;;;;;;4.80;3.20;;;;;;;16.08;37.55;97889.72;5034208;28;20740;-51
2021/03/29 09:45:13;;;;;;;5.47;3.50;;;;;;;16.63;36.60;97882.81;4999130;28;20060;-51
2021/03/29 09:47:40;;;;;;;4.40;3.00;;;;;;;16.42;37.33;97893.69;5015798;28;20092;-52
2021/03/29 09:50:10;;;;;;;5.18;3.50;;;;;;;16.78;37.68;97884.84;4996989;28;20112;-54
2021/03/29 09:52:41;;;;;;;6.05;3.50;;;;;;;17.01;36.67;97882.63;5021797;28;20072;-49
2021/03/29 09:55:11;;;;;;;4.68;3.38;;;;;;;17.30;38.29;97881.56;5001199;28;20074;-48
2021/03/29 09:57:40;;;;;;;7.00;3.20;;;;;;;16.67;36.38;97878.84;5022442;28;20069;-47
2021/03/29 10:00:19;;;;;;;5.50;2.60;;;;;;;16.89;35.74;97881.13;5002685;28;20492;-52
2021/03/29 10:02:47;;;;;;;8.48;3.67;;;;;;;16.83;36.04;97887.91;5030469;28;20088;-50
2021/03/29 10:05:17;;;;;;;5.72;3.60;;;;;;;16.99;34.97;97884.56;5007198;28;20106;-47
2021/03/29 10:07:53;;;;;;;4.65;3.50;;;;;;;17.44;35.50;97878.34;5035983;28;20556;-47
2021/03/29 10:10:29;;;;;;;7.00;2.95;;;;;;;17.40;35.26;97868.16;4994987;28;20065;-48
2021/03/29 10:13:06;;;;;;;4.07;3.00;;;;;;;17.27;33.76;97876.53;5043974;28;20084;-52
2021/03/29 10:15:35;;;;;;;5.25;3.13;;;;;;;17.39;34.26;97871.81;5000126;28;20140;-49
2021/03/29 10:18:05;;;;;;;;;;;;;;;17.75;33.90;97870.78;5033723;28;20069;-51
2021/03/29 10:20:35;;;;;;;6.82;3.17;;;;;;;17.45;35.01;97868.56;4996858;28;23288;-49
2021/03/29 10:23:25;;;;;;;;;;;;;;;17.37;35.33;97863.13;5030464;28;20464;-53
2021/03/29 10:26:18;;;;;;;6.00;2.95;;;;;;;17.42;34.15;97869.69;5008666;28;20383;-51
2021/03/29 10:28:57;;;;;;;3.75;2.40;;;;;;;17.49;34.42;97854.75;5025363;28;20080;-53
2021/03/29 10:31:25;;;;;;;4.03;2.65;;;;;;;17.59;33.51;97869.84;5000295;28;20103;-50
2021/03/29 10:33:55;;;;;;;4.40;2.30;;;;;;;17.79;32.23;97861.53;5036253;28;20083;-53
2021/03/29 10:36:25;;;;;;;3.83;2.40;;;;;;;17.74;33.30;97858.44;5006319;28;20183;-51
2021/03/29 10:38:54;;;;;;;3.83;2.40;;;;;;;18.00;33.76;97852.31;5037043;28;22989;-48
2021/03/29 10:41:22;;;;;;;5.00;2.53;;;;;;;18.17;34.80;97851.44;5002847;28;22751;-53
2021/03/29 10:43:50;;;;;;;4.07;2.30;;;;;;;18.22;32.41;97850.94;5029829;28;20066;-47
2021/03/29 10:46:17;;;;;;;4.00;2.60;;;;;;;17.92;31.34;97852.25;5003565;28;20459;-50
2021/03/29 10:48:45;;;;;;;4.63;2.60;;;;;;;17.63;31.37;97848.03;5030310;28;20774;-49
2021/03/29 10:51:13;;;;;;;2.88;2.13;;;;;;;18.24;32.82;97855.13;5025775;28;20445;-45
2021/03/29 10:53:42;;;;;;;5.60;2.33;;;;;;;18.03;32.22;97850.19;4997289;28;20074;-48
2021/03/29 10:56:09;;;;;;;4.25;2.60;;;;;;;18.17;32.53;97837.22;5026791;28;20078;-53
2021/03/29 10:58:37;;;;;;;3.38;2.28;;;;;;;18.25;33.14;97834.59;4994654;28;20480;-54
2021/03/29 11:01:04;;;;;;;7.28;2.38;;;;;;;18.07;32.64;97844.53;5035909;28;20104;-48
2021/03/29 11:03:32;;;;;;;6.35;2.70;;;;;;;17.92;31.84;97838.91;4997810;28;20520;-53
2021/03/29 11:06:00;;;;;;;5.82;2.80;;;;;;;18.12;33.55;97842.22;5044745;28;20084;-50
2021/03/29 11:08:31;;;;;;;5.15;2.42;;;;;;;18.37;33.53;97844.00;4994671;28;20081;-50
2021/03/29 11:11:00;;;;;;;4.95;2.50;;;;;;;18.32;32.04;97837.47;5034606;28;20406;-49
2021/03/29 11:13:27;;;;;;;4.50;2.72;;;;;;;17.76;34.04;97839.66;5003835;28;20069;-47
2021/03/29 11:15:56;;;;;;;4.38;2.63;;;;;;;18.45;34.20;97835.22;5034814;28;20585;-48
2021/03/29 11:18:41;;;;;;;6.50;2.97;;;;;;;18.54;33.94;97831.56;5003504;28;20091;-48
2021/03/29 11:21:11;;;;;;;3.55;2.55;;;;;;;18.92;32.01;97830.19;5026970;28;20069;-52
2021/03/29 11:23:38;;;;;;;6.55;2.90;;;;;;;18.64;32.22;97826.91;5009881;28;20102;-49
2021/03/29 11:26:06;;;;;;;4.05;2.50;;;;;;;18.38;32.07;97821.66;5025191;28;20085;-51
2021/03/29 11:28:34;;;;;;;4.70;2.40;;;;;;;18.40;31.52;97824.97;4999563;28;20137;-48
2021/03/29 11:31:02;;;;;;;4.15;2.50;;;;;;;18.16;31.30;97828.38;5025985;28;20069;-49
2021/03/29 11:33:30;;;;;;;5.50;2.75;;;;;;;18.39;31.36;97825.16;5007285;28;20069;-51
2021/03/29 11:35:57;;;;;;;6.28;2.50;;;;;;;18.31;30.42;97819.78;5036144;28;20061;-53
2021/03/29 11:38:25;;;;;;;5.88;2.63;;;;;;;18.91;29.87;97819.69;4989362;28;20094;-55
2021/03/29 11:40:52;;;;;;;4.32;2.50;;;;;;;18.97;30.43;97819.03;5026726;28;20075;-53
2021/03/29 11:43:21;;;;;;;4.22;2.55;;;;;;;19.10;32.43;97819.41;5021855;28;20075;-47
2021/03/29 11:45:48;;;;;;;3.55;2.50;;;;;;;19.14;31.09;97820.72;5016581;28;20072;-50
2021/03/29 11:48:21;;;;;;;6.75;2.67;;;;;;;19.09;30.59;97815.03;5023058;28;20072;-50
2021/03/29 11:50:50;;;;;;;5.38;2.75;;;;;;;18.98;30.01;97820.69;5002923;28;20096;-51
2021/03/29 11:53:18;;;;;;;5.93;3.00;;;;;;;19.12;30.54;97813.88;5030474;28;20987;-48